createdAt,value
2023-03-24T00:02:29.015Z,11.00
2023-03-24T00:08:36.953Z,11.00
2023-03-24T00:14:38.944Z,10.80
2023-03-24T00:20:42.462Z,10.90
2023-03-24T00:26:46.477Z,10.70
2023-03-24T00:32:49.528Z,10.80
2023-03-24T00:38:53.222Z,10.80
2023-03-24T00:44:55.132Z,10.80
2023-03-24T00:50:57.430Z,10.80
2023-03-24T00:57:03.267Z,10.80
2023-03-24T01:03:05.536Z,10.70
2023-03-24T01:09:07.981Z,10.70
2023-03-24T01:15:15.411Z,10.70
2023-03-24T01:21:18.467Z,10.60
2023-03-24T01:27:20.457Z,10.70
2023-03-24T01:33:23.627Z,10.60
2023-03-24T01:39:25.482Z,10.70
2023-03-24T01:45:39.545Z,10.90
2023-03-24T01:51:46.625Z,11.10
2023-03-24T01:57:52.921Z,11.00
2023-03-24T02:03:54.933Z,11.00
2023-03-24T02:09:57.540Z,11.00
2023-03-24T02:16:23.629Z,11.00
2023-03-24T02:22:37.219Z,10.90
2023-03-24T02:28:42.285Z,10.90
2023-03-24T02:35:15.694Z,11.00
2023-03-24T02:41:30.485Z,10.90
2023-03-24T02:48:17.542Z,10.90
2023-03-24T02:54:25.577Z,10.90
2023-03-24T03:00:48.824Z,11.00
2023-03-24T03:06:56.787Z,11.00
2023-03-24T03:13:01.998Z,11.00
2023-03-24T03:19:11.006Z,11.10
2023-03-24T03:25:16.021Z,11.10
2023-03-24T03:31:30.265Z,11.20
2023-03-24T03:37:44.868Z,11.20
2023-03-24T03:43:49.777Z,11.30
2023-03-24T03:49:51.961Z,11.30
2023-03-24T03:55:54.136Z,11.20
2023-03-24T04:01:57.560Z,11.20
2023-03-24T04:08:37.890Z,11.10
2023-03-24T04:14:45.741Z,11.20
2023-03-24T04:21:04.325Z,11.20
2023-03-24T04:27:27.297Z,11.30
2023-03-24T04:33:48.691Z,11.30
2023-03-24T04:39:54.201Z,11.40
2023-03-24T04:45:58.063Z,11.40
2023-03-24T04:52:00.648Z,11.60
2023-03-24T04:58:02.882Z,11.70
2023-03-24T05:04:05.295Z,11.60
2023-03-24T05:10:07.870Z,11.70
2023-03-24T05:16:10.241Z,11.70
2023-03-24T05:22:12.227Z,11.70
2023-03-24T05:28:14.175Z,11.80
2023-03-24T05:34:15.985Z,11.80
2023-03-24T05:40:18.126Z,11.90
2023-03-24T05:46:20.237Z,11.90
2023-03-24T05:52:22.828Z,11.80
2023-03-24T05:58:24.901Z,11.80
2023-03-24T06:04:30.765Z,11.40
2023-03-24T06:10:32.573Z,11.30
2023-03-24T06:16:38.842Z,11.10
2023-03-24T06:22:40.759Z,11.20
2023-03-24T06:28:43.470Z,11.20
2023-03-24T06:34:45.391Z,11.40
2023-03-24T06:40:47.289Z,11.50
2023-03-24T06:46:49.334Z,11.50
2023-03-24T06:52:51.189Z,11.50
2023-03-24T06:58:53.035Z,11.40
2023-03-24T07:04:55.233Z,11.20
2023-03-24T07:10:57.907Z,11.20
2023-03-24T07:16:59.892Z,11.20
2023-03-24T07:23:01.828Z,11.10
2023-03-24T07:29:04.149Z,11.00
2023-03-24T07:35:11.895Z,10.90
2023-03-24T07:41:13.908Z,11.00
2023-03-24T07:47:15.790Z,11.10
2023-03-24T07:53:20.254Z,11.20
2023-03-24T07:59:22.182Z,11.10
2023-03-24T08:05:25.115Z,11.10
2023-03-24T08:11:26.948Z,11.00
2023-03-24T08:17:29.315Z,11.40
2023-03-24T08:23:31.749Z,11.40
2023-03-24T08:29:34.731Z,11.30
2023-03-24T08:35:40.085Z,11.40
2023-03-24T08:41:41.984Z,11.70
2023-03-24T08:47:43.851Z,11.70
2023-03-24T08:53:45.884Z,11.60
2023-03-24T08:59:49.005Z,11.70
2023-03-24T09:05:59.658Z,11.90
2023-03-24T09:12:03.012Z,12.30
2023-03-24T09:18:05.209Z,12.80
2023-03-24T09:24:07.406Z,12.90
2023-03-24T09:30:10.957Z,12.60
2023-03-24T09:36:14.002Z,12.80
2023-03-24T09:42:25.133Z,13.20
2023-03-24T09:48:53.303Z,13.50
2023-03-24T09:54:58.839Z,13.50
2023-03-24T10:01:01.273Z,13.30
2023-03-24T10:07:42.923Z,13.10
2023-03-24T10:13:54.865Z,13.20
2023-03-24T10:20:07.792Z,13.10
2023-03-24T10:26:54.144Z,13.00
2023-03-24T10:32:56.210Z,13.40
2023-03-24T10:39:01.873Z,13.70
2023-03-24T10:45:14.690Z,13.20
2023-03-24T10:51:21.630Z,13.00
2023-03-24T10:57:24.881Z,12.90
2023-03-24T11:03:32.872Z,12.90
2023-03-24T11:09:46.386Z,13.10
2023-03-24T11:16:05.920Z,13.00
2023-03-24T11:22:11.330Z,12.90
2023-03-24T11:28:27.633Z,12.90
2023-03-24T11:34:39.098Z,12.90
2023-03-24T11:40:54.523Z,13.00
2023-03-24T11:47:01.210Z,13.20
2023-03-24T11:53:23.285Z,13.80
2023-03-24T11:59:52.350Z,14.30
2023-03-24T12:06:17.122Z,14.00
2023-03-24T12:12:38.132Z,14.10
2023-03-24T12:18:48.792Z,13.90
2023-03-24T12:25:12.255Z,13.50
2023-03-24T12:31:41.915Z,13.80
2023-03-24T12:38:02.372Z,13.60
2023-03-24T12:44:22.774Z,13.40
2023-03-24T12:50:31.275Z,13.30
2023-03-24T12:56:45.716Z,14.00
2023-03-24T13:02:58.870Z,13.80
2023-03-24T13:09:13.402Z,13.90
2023-03-24T13:15:39.942Z,13.70
2023-03-24T13:21:43.266Z,13.70
2023-03-24T13:27:49.844Z,13.70
2023-03-24T13:33:54.432Z,13.40
2023-03-24T13:40:01.696Z,13.60
2023-03-24T13:46:13.937Z,13.40
2023-03-24T13:52:29.008Z,13.30
2023-03-24T13:58:58.444Z,13.00
2023-03-24T14:05:11.832Z,12.10
2023-03-24T14:11:32.098Z,11.80
2023-03-24T14:17:33.878Z,11.70
2023-03-24T14:23:41.119Z,11.80
2023-03-24T14:29:51.481Z,12.20
2023-03-24T14:36:01.873Z,12.40
2023-03-24T14:42:32.680Z,12.30
2023-03-24T14:48:40.446Z,12.50
2023-03-24T14:54:53.792Z,12.80
2023-03-24T15:07:05.342Z,12.70
2023-03-24T15:13:27.043Z,12.60
2023-03-24T15:19:31.433Z,12.60
2023-03-24T15:25:33.695Z,12.50
2023-03-24T15:31:38.046Z,12.50
2023-03-24T15:37:48.209Z,12.00
2023-03-24T15:43:53.037Z,9.30
2023-03-24T15:49:57.912Z,9.00
2023-03-24T15:56:11.853Z,9.10
2023-03-24T16:02:42.584Z,9.20
2023-03-24T16:08:46.508Z,9.20
2023-03-24T16:14:48.743Z,9.50
2023-03-24T16:20:52.109Z,9.90
2023-03-24T16:26:53.938Z,9.90
2023-03-24T16:32:56.038Z,10.00
2023-03-24T16:38:59.830Z,10.20
2023-03-24T16:45:01.675Z,10.10
2023-03-24T16:51:03.791Z,9.90
2023-03-24T16:57:06.065Z,9.80
2023-03-24T17:03:08.480Z,9.70
2023-03-24T17:09:12.655Z,9.60
2023-03-24T17:15:30.089Z,9.60
2023-03-24T17:21:37.589Z,9.60
2023-03-24T17:27:39.575Z,9.60
2023-03-24T17:33:42.005Z,9.50
2023-03-24T17:39:44.240Z,9.50
2023-03-24T17:45:46.456Z,9.40
2023-03-24T17:51:48.490Z,9.40
2023-03-24T17:57:50.317Z,9.30
2023-03-24T18:03:52.272Z,9.20
2023-03-24T18:09:54.499Z,9.20
2023-03-24T18:15:58.985Z,9.20
2023-03-24T18:22:04.309Z,9.20
2023-03-24T18:28:06.791Z,9.20
2023-03-24T18:34:08.895Z,9.10
2023-03-24T18:40:11.537Z,9.10
2023-03-24T18:46:13.688Z,9.00
2023-03-24T18:52:18.082Z,8.90
2023-03-24T18:58:20.145Z,8.90
2023-03-24T19:04:22.061Z,8.90
2023-03-24T19:10:23.948Z,9.00
2023-03-24T19:16:26.398Z,9.00
2023-03-24T19:22:28.524Z,9.00
2023-03-24T19:28:32.405Z,9.00
2023-03-24T19:34:34.243Z,9.00
2023-03-24T19:40:36.204Z,9.00
2023-03-24T19:46:38.445Z,8.90
2023-03-24T19:52:43.108Z,8.90
2023-03-24T19:58:45.005Z,8.90
2023-03-24T20:04:46.884Z,9.00
2023-03-24T20:10:48.754Z,8.80
2023-03-24T20:16:50.798Z,8.80
2023-03-24T20:22:53.032Z,8.60
2023-03-24T20:28:54.905Z,8.60
2023-03-24T20:34:56.776Z,8.50
2023-03-24T20:40:59.490Z,8.50
2023-03-24T20:47:01.358Z,8.50
2023-03-24T20:53:03.200Z,8.50
2023-03-24T20:59:07.013Z,8.50
2023-03-24T21:05:09.651Z,8.60
2023-03-24T21:11:11.729Z,8.60
2023-03-24T21:17:14.081Z,8.50
2023-03-24T21:23:18.596Z,8.50
2023-03-24T21:29:22.454Z,8.40
2023-03-24T21:35:25.091Z,8.40
2023-03-24T21:41:28.926Z,8.50
2023-03-24T21:47:30.725Z,8.50
2023-03-24T21:53:35.036Z,8.50
2023-03-24T21:59:37.871Z,8.60
2023-03-24T22:05:40.554Z,8.60
2023-03-24T22:11:43.071Z,8.70
2023-03-24T22:17:45.071Z,8.70
2023-03-24T22:23:47.004Z,8.80
2023-03-24T22:29:48.893Z,8.80
2023-03-24T22:35:55.313Z,8.80
2023-03-24T22:41:57.509Z,8.80
2023-03-24T22:47:59.857Z,8.80
2023-03-24T22:54:01.686Z,8.90
2023-03-24T23:00:06.316Z,8.80
2023-03-24T23:06:09.909Z,8.80
2023-03-24T23:12:13.670Z,8.70
2023-03-24T23:18:16.797Z,8.80
2023-03-24T23:24:18.742Z,8.70
2023-03-24T23:30:21.244Z,8.80
2023-03-24T23:36:26.301Z,8.80
2023-03-24T23:42:29.435Z,8.60
2023-03-24T23:48:31.777Z,8.60
2023-03-24T23:54:33.708Z,8.60
